createdAt,value
2023-02-11T00:00:14.550Z,2.29
2023-02-11T00:05:42.359Z,2.32
2023-02-11T00:11:15.162Z,2.34
2023-02-11T00:16:42.393Z,2.42
2023-02-11T00:22:10.417Z,2.51
2023-02-11T00:27:38.478Z,2.52
2023-02-11T00:33:06.494Z,2.50
2023-02-11T00:38:34.500Z,2.53
2023-02-11T00:44:03.212Z,2.42
2023-02-11T00:49:30.042Z,2.44
2023-02-11T00:54:57.612Z,2.49
2023-02-11T01:00:25.416Z,2.51
2023-02-11T01:05:52.857Z,2.47
2023-02-11T01:11:22.225Z,2.44
2023-02-11T01:16:49.144Z,2.37
2023-02-11T01:22:16.546Z,2.22
2023-02-11T01:27:43.948Z,2.01
2023-02-11T01:33:13.186Z,1.79
2023-02-11T01:38:41.451Z,1.59
2023-02-11T01:44:36.403Z,1.58
2023-02-11T01:50:04.859Z,1.66
2023-02-11T01:55:51.492Z,1.78
2023-02-11T02:01:25.743Z,1.82
2023-02-11T02:07:00.231Z,1.86
2023-02-11T02:12:28.737Z,1.90
2023-02-11T02:18:13.832Z,2.06
2023-02-11T02:24:19.205Z,2.22
2023-02-11T02:30:16.591Z,2.35
2023-02-11T02:35:58.631Z,2.55
2023-02-11T02:41:34.600Z,2.70
2023-02-11T02:47:01.516Z,2.93
2023-02-11T02:52:28.433Z,3.11
2023-02-11T02:58:01.363Z,3.27
2023-02-11T03:04:01.471Z,3.36
2023-02-11T03:09:41.035Z,3.41
2023-02-11T03:15:09.521Z,3.42
2023-02-11T03:20:38.924Z,3.37
2023-02-11T03:26:18.983Z,3.38
2023-02-11T03:32:23.666Z,3.44
2023-02-11T03:38:00.304Z,3.48
2023-02-11T03:43:34.887Z,3.61
2023-02-11T03:49:05.733Z,3.62
2023-02-11T03:54:33.285Z,3.77
2023-02-11T04:00:01.239Z,3.90
2023-02-11T04:05:39.367Z,4.00
2023-02-11T04:11:07.036Z,4.16
2023-02-11T04:16:36.065Z,4.16
2023-02-11T04:22:04.255Z,4.17
2023-02-11T04:27:32.065Z,4.22
2023-02-11T04:33:00.015Z,4.17
2023-02-11T04:38:26.795Z,4.16
2023-02-11T04:43:54.158Z,4.20
2023-02-11T04:49:22.008Z,4.24
2023-02-11T04:54:49.317Z,4.27
2023-02-11T05:00:45.055Z,4.11
2023-02-11T05:06:12.535Z,4.03
2023-02-11T05:11:40.728Z,4.03
2023-02-11T05:17:10.819Z,4.08
2023-02-11T05:22:37.899Z,4.16
2023-02-11T05:28:05.869Z,4.18
2023-02-11T05:33:33.477Z,4.31
2023-02-11T05:39:01.085Z,4.35
2023-02-11T05:44:27.872Z,4.34
2023-02-11T05:49:54.894Z,4.35
2023-02-11T05:55:22.336Z,4.36
2023-02-11T06:00:50.631Z,4.53
2023-02-11T06:06:19.355Z,4.56
2023-02-11T06:11:47.098Z,4.52
2023-02-11T06:17:15.656Z,4.67
2023-02-11T06:22:42.741Z,4.75
2023-02-11T06:28:10.940Z,4.76
2023-02-11T06:33:38.883Z,4.94
2023-02-11T06:39:06.325Z,5.00
2023-02-11T06:44:42.166Z,5.11
2023-02-11T06:50:13.526Z,5.25
2023-02-11T06:55:41.246Z,5.47
2023-02-11T07:01:24.142Z,5.58
2023-02-11T07:06:51.372Z,5.69
2023-02-11T07:12:18.700Z,5.90
2023-02-11T07:17:49.867Z,6.03
2023-02-11T07:23:26.618Z,6.18
2023-02-11T07:28:58.349Z,6.50
2023-02-11T07:34:25.784Z,6.56
2023-02-11T07:39:53.546Z,6.90
2023-02-11T07:45:21.498Z,7.01
2023-02-11T07:50:59.624Z,7.15
2023-02-11T07:56:29.637Z,7.28
2023-02-11T08:01:57.549Z,7.34
